sensor_id;sensor_type;location;lat;lon;timestamp;temperature;humidity
2611;DHT22;5612;51.134;17.058;2023-07-22T00:00:52;17.80;1.00
2611;DHT22;5612;51.134;17.058;2023-07-22T00:03:21;17.90;1.00
2611;DHT22;5612;51.134;17.058;2023-07-22T00:06:04;17.90;99.90
2611;DHT22;5612;51.134;17.058;2023-07-22T00:08:34;17.80;99.90
2611;DHT22;5612;51.134;17.058;2023-07-22T00:11:03;17.60;99.90
2611;DHT22;5612;51.134;17.058;2023-07-22T00:13:32;17.60;1.00
2611;DHT22;5612;51.134;17.058;2023-07-22T00:16:01;17.50;1.00
2611;DHT22;5612;51.134;17.058;2023-07-22T00:18:31;17.40;1.00
2611;DHT22;5612;51.134;17.058;2023-07-22T00:21:00;17.40;1.00
2611;DHT22;5612;51.134;17.058;2023-07-22T00:23:30;17.60;1.00
2611;DHT22;5612;51.134;17.058;2023-07-22T00:25:59;17.60;1.00
2611;DHT22;5612;51.134;17.058;2023-07-22T00:28:28;17.70;1.00
2611;DHT22;5612;51.134;17.058;2023-07-22T00:30:57;17.50;99.90
2611;DHT22;5612;51.134;17.058;2023-07-22T00:33:26;17.30;99.90
2611;DHT22;5612;51.134;17.058;2023-07-22T00:35:54;17.30;1.00
2611;DHT22;5612;51.134;17.058;2023-07-22T00:38:24;17.30;1.00
2611;DHT22;5612;51.134;17.058;2023-07-22T00:40:54;17.20;1.00
2611;DHT22;5612;51.134;17.058;2023-07-22T00:43:23;17.20;1.00
2611;DHT22;5612;51.134;17.058;2023-07-22T00:45:53;17.00;1.00
2611;DHT22;5612;51.134;17.058;2023-07-22T00:48:22;17.00;1.00
2611;DHT22;5612;51.134;17.058;2023-07-22T00:50:51;17.00;1.00
2611;DHT22;5612;51.134;17.058;2023-07-22T00:53:20;16.90;1.00
2611;DHT22;5612;51.134;17.058;2023-07-22T00:55:49;17.00;1.00
2611;DHT22;5612;51.134;17.058;2023-07-22T00:58:20;16.90;1.00
2611;DHT22;5612;51.134;17.058;2023-07-22T01:00:49;16.90;1.00
2611;DHT22;5612;51.134;17.058;2023-07-22T01:03:20;17.00;1.00
2611;DHT22;5612;51.134;17.058;2023-07-22T01:05:49;17.10;1.00
2611;DHT22;5612;51.134;17.058;2023-07-22T01:08:19;17.10;1.00
2611;DHT22;5612;51.134;17.058;2023-07-22T01:10:48;17.20;1.00
2611;DHT22;5612;51.134;17.058;2023-07-22T01:13:17;17.20;1.00
2611;DHT22;5612;51.134;17.058;2023-07-22T01:15:47;17.20;1.00
2611;DHT22;5612;51.134;17.058;2023-07-22T01:18:16;17.20;1.00
2611;DHT22;5612;51.134;17.058;2023-07-22T01:20:46;17.10;1.00
2611;DHT22;5612;51.134;17.058;2023-07-22T01:23:16;17.10;1.00
2611;DHT22;5612;51.134;17.058;2023-07-22T01:25:45;17.10;1.00
2611;DHT22;5612;51.134;17.058;2023-07-22T01:28:14;17.10;1.00
2611;DHT22;5612;51.134;17.058;2023-07-22T01:30:43;17.00;1.00
2611;DHT22;5612;51.134;17.058;2023-07-22T01:33:12;16.90;1.00
2611;DHT22;5612;51.134;17.058;2023-07-22T01:35:41;16.90;1.00
2611;DHT22;5612;51.134;17.058;2023-07-22T01:38:10;16.80;1.00
2611;DHT22;5612;51.134;17.058;2023-07-22T01:40:40;16.90;1.00
2611;DHT22;5612;51.134;17.058;2023-07-22T01:43:09;16.80;1.00
2611;DHT22;5612;51.134;17.058;2023-07-22T01:45:37;16.80;1.00
2611;DHT22;5612;51.134;17.058;2023-07-22T01:48:07;16.80;1.00
2611;DHT22;5612;51.134;17.058;2023-07-22T01:50:35;16.80;1.00
2611;DHT22;5612;51.134;17.058;2023-07-22T01:53:05;16.60;1.00
2611;DHT22;5612;51.134;17.058;2023-07-22T01:55:33;16.40;14.80
2611;DHT22;5612;51.134;17.058;2023-07-22T01:58:04;16.30;14.60
2611;DHT22;5612;51.134;17.058;2023-07-22T02:00:32;16.50;31.90
2611;DHT22;5612;51.134;17.058;2023-07-22T02:03:01;16.50;13.70
2611;DHT22;5612;51.134;17.058;2023-07-22T02:05:31;16.60;1.00
2611;DHT22;5612;51.134;17.058;2023-07-22T02:07:59;16.40;13.40
2611;DHT22;5612;51.134;17.058;2023-07-22T02:10:28;16.40;13.90
2611;DHT22;5612;51.134;17.058;2023-07-22T02:12:57;16.20;26.00
2611;DHT22;5612;51.134;17.058;2023-07-22T02:15:27;16.20;54.00
2611;DHT22;5612;51.134;17.058;2023-07-22T02:17:56;16.20;55.20
2611;DHT22;5612;51.134;17.058;2023-07-22T02:20:25;16.10;73.70
2611;DHT22;5612;51.134;17.058;2023-07-22T02:22:56;16.00;91.70
2611;DHT22;5612;51.134;17.058;2023-07-22T02:25:25;16.00;92.70
2611;DHT22;5612;51.134;17.058;2023-07-22T02:27:54;16.10;90.50
2611;DHT22;5612;51.134;17.058;2023-07-22T02:30:22;16.00;92.80
2611;DHT22;5612;51.134;17.058;2023-07-22T02:32:53;16.10;85.00
2611;DHT22;5612;51.134;17.058;2023-07-22T02:35:21;16.10;99.90
2611;DHT22;5612;51.134;17.058;2023-07-22T02:37:50;16.20;99.90
2611;DHT22;5612;51.134;17.058;2023-07-22T02:40:19;16.20;73.50
2611;DHT22;5612;51.134;17.058;2023-07-22T02:42:48;16.30;53.10
2611;DHT22;5612;51.134;17.058;2023-07-22T02:45:17;16.40;60.60
2611;DHT22;5612;51.134;17.058;2023-07-22T02:47:45;16.40;50.50
2611;DHT22;5612;51.134;17.058;2023-07-22T02:50:16;16.50;65.70
2611;DHT22;5612;51.134;17.058;2023-07-22T02:52:44;16.50;49.30
2611;DHT22;5612;51.134;17.058;2023-07-22T02:55:15;16.70;25.90
2611;DHT22;5612;51.134;17.058;2023-07-22T02:57:46;16.70;1.00
2611;DHT22;5612;51.134;17.058;2023-07-22T03:00:17;16.70;1.00
2611;DHT22;5612;51.134;17.058;2023-07-22T03:02:51;16.70;1.00
2611;DHT22;5612;51.134;17.058;2023-07-22T03:05:22;16.70;1.00
2611;DHT22;5612;51.134;17.058;2023-07-22T03:07:51;16.70;1.00
2611;DHT22;5612;51.134;17.058;2023-07-22T03:10:20;16.80;1.00
2611;DHT22;5612;51.134;17.058;2023-07-22T03:12:49;16.80;1.00
2611;DHT22;5612;51.134;17.058;2023-07-22T03:15:22;16.90;1.00
2611;DHT22;5612;51.134;17.058;2023-07-22T03:17:54;16.80;1.00
2611;DHT22;5612;51.134;17.058;2023-07-22T03:20:24;16.70;1.00
2611;DHT22;5612;51.134;17.058;2023-07-22T03:22:53;16.80;1.00
2611;DHT22;5612;51.134;17.058;2023-07-22T03:25:22;17.00;1.00
2611;DHT22;5612;51.134;17.058;2023-07-22T03:27:51;17.00;1.00
2611;DHT22;5612;51.134;17.058;2023-07-22T03:30:22;17.00;99.90
2611;DHT22;5612;51.134;17.058;2023-07-22T03:32:51;16.80;1.00
2611;DHT22;5612;51.134;17.058;2023-07-22T03:35:19;16.80;1.00
2611;DHT22;5612;51.134;17.058;2023-07-22T03:37:50;16.80;1.00
2611;DHT22;5612;51.134;17.058;2023-07-22T03:40:18;16.90;1.00
2611;DHT22;5612;51.134;17.058;2023-07-22T03:42:48;17.00;1.00
2611;DHT22;5612;51.134;17.058;2023-07-22T03:45:18;17.00;1.00
2611;DHT22;5612;51.134;17.058;2023-07-22T03:47:49;17.00;99.90
2611;DHT22;5612;51.134;17.058;2023-07-22T03:50:19;17.00;1.00
2611;DHT22;5612;51.134;17.058;2023-07-22T03:52:47;17.00;99.90
2611;DHT22;5612;51.134;17.058;2023-07-22T03:55:18;17.10;1.00
2611;DHT22;5612;51.134;17.058;2023-07-22T03:57:47;17.00;99.90
2611;DHT22;5612;51.134;17.058;2023-07-22T04:00:16;17.00;99.90
2611;DHT22;5612;51.134;17.058;2023-07-22T04:02:44;17.00;99.90
2611;DHT22;5612;51.134;17.058;2023-07-22T04:05:13;16.90;99.90
2611;DHT22;5612;51.134;17.058;2023-07-22T04:07:43;16.60;1.00
2611;DHT22;5612;51.134;17.058;2023-07-22T04:10:13;16.60;1.00
2611;DHT22;5612;51.134;17.058;2023-07-22T04:12:43;16.70;1.00
2611;DHT22;5612;51.134;17.058;2023-07-22T04:15:12;16.60;1.00
2611;DHT22;5612;51.134;17.058;2023-07-22T04:17:42;16.60;1.00
2611;DHT22;5612;51.134;17.058;2023-07-22T04:20:11;16.60;1.00
2611;DHT22;5612;51.134;17.058;2023-07-22T04:22:42;16.50;1.00
2611;DHT22;5612;51.134;17.058;2023-07-22T04:25:11;16.50;1.00
2611;DHT22;5612;51.134;17.058;2023-07-22T04:27:40;16.50;1.00
2611;DHT22;5612;51.134;17.058;2023-07-22T04:30:10;16.50;1.00
2611;DHT22;5612;51.134;17.058;2023-07-22T04:32:39;16.50;1.00
2611;DHT22;5612;51.134;17.058;2023-07-22T04:35:08;16.60;1.00
2611;DHT22;5612;51.134;17.058;2023-07-22T04:37:37;16.70;1.00
2611;DHT22;5612;51.134;17.058;2023-07-22T04:40:07;16.70;1.00
2611;DHT22;5612;51.134;17.058;2023-07-22T04:42:41;16.50;99.90
2611;DHT22;5612;51.134;17.058;2023-07-22T04:45:11;16.60;1.00
2611;DHT22;5612;51.134;17.058;2023-07-22T04:47:41;16.70;1.00
2611;DHT22;5612;51.134;17.058;2023-07-22T04:50:11;16.80;1.00
2611;DHT22;5612;51.134;17.058;2023-07-22T04:52:42;16.70;1.00
2611;DHT22;5612;51.134;17.058;2023-07-22T04:55:11;16.80;99.90
2611;DHT22;5612;51.134;17.058;2023-07-22T04:57:42;16.70;99.90
2611;DHT22;5612;51.134;17.058;2023-07-22T05:00:14;16.70;99.90
2611;DHT22;5612;51.134;17.058;2023-07-22T05:02:43;16.80;99.90
2611;DHT22;5612;51.134;17.058;2023-07-22T05:05:13;17.00;66.10
2611;DHT22;5612;51.134;17.058;2023-07-22T05:07:42;17.00;99.90
2611;DHT22;5612;51.134;17.058;2023-07-22T05:10:12;17.20;99.90
2611;DHT22;5612;51.134;17.058;2023-07-22T05:12:42;17.10;99.90
2611;DHT22;5612;51.134;17.058;2023-07-22T05:15:13;17.20;1.00
2611;DHT22;5612;51.134;17.058;2023-07-22T05:17:42;17.20;1.00
2611;DHT22;5612;51.134;17.058;2023-07-22T05:20:11;17.20;1.00
2611;DHT22;5612;51.134;17.058;2023-07-22T05:22:40;17.40;1.00
2611;DHT22;5612;51.134;17.058;2023-07-22T05:25:10;17.40;99.90
2611;DHT22;5612;51.134;17.058;2023-07-22T05:27:39;17.40;99.90
2611;DHT22;5612;51.134;17.058;2023-07-22T05:30:09;17.50;99.90
2611;DHT22;5612;51.134;17.058;2023-07-22T05:32:56;17.60;1.00
2611;DHT22;5612;51.134;17.058;2023-07-22T05:35:25;17.60;1.00
2611;DHT22;5612;51.134;17.058;2023-07-22T05:37:54;17.60;1.00
2611;DHT22;5612;51.134;17.058;2023-07-22T05:40:22;17.50;96.80
2611;DHT22;5612;51.134;17.058;2023-07-22T05:42:51;17.60;1.00
2611;DHT22;5612;51.134;17.058;2023-07-22T05:45:20;17.70;99.90
2611;DHT22;5612;51.134;17.058;2023-07-22T05:47:49;17.90;99.90
2611;DHT22;5612;51.134;17.058;2023-07-22T05:50:19;18.00;39.20
2611;DHT22;5612;51.134;17.058;2023-07-22T05:52:48;18.20;92.30
2611;DHT22;5612;51.134;17.058;2023-07-22T05:55:17;18.20;1.00
2611;DHT22;5612;51.134;17.058;2023-07-22T05:57:46;18.20;1.00
2611;DHT22;5612;51.134;17.058;2023-07-22T06:00:15;18.30;1.00
2611;DHT22;5612;51.134;17.058;2023-07-22T06:02:45;18.20;99.90
2611;DHT22;5612;51.134;17.058;2023-07-22T06:05:14;18.10;1.00
2611;DHT22;5612;51.134;17.058;2023-07-22T06:07:44;18.20;1.00
2611;DHT22;5612;51.134;17.058;2023-07-22T06:10:13;18.40;1.00
2611;DHT22;5612;51.134;17.058;2023-07-22T06:12:42;18.60;1.00
2611;DHT22;5612;51.134;17.058;2023-07-22T06:15:11;18.70;99.90
2611;DHT22;5612;51.134;17.058;2023-07-22T06:17:40;18.80;99.90
2611;DHT22;5612;51.134;17.058;2023-07-22T06:20:10;18.60;99.90
2611;DHT22;5612;51.134;17.058;2023-07-22T06:22:39;18.70;1.00
2611;DHT22;5612;51.134;17.058;2023-07-22T06:25:09;18.60;99.90
2611;DHT22;5612;51.134;17.058;2023-07-22T06:27:38;18.50;99.90
2611;DHT22;5612;51.134;17.058;2023-07-22T06:30:08;18.50;99.90
2611;DHT22;5612;51.134;17.058;2023-07-22T06:32:38;18.60;99.90
2611;DHT22;5612;51.134;17.058;2023-07-22T06:35:07;18.60;99.90
2611;DHT22;5612;51.134;17.058;2023-07-22T06:37:36;18.60;99.90
2611;DHT22;5612;51.134;17.058;2023-07-22T06:40:06;18.70;99.90
2611;DHT22;5612;51.134;17.058;2023-07-22T06:42:37;18.90;99.90
2611;DHT22;5612;51.134;17.058;2023-07-22T06:45:06;18.90;99.90
2611;DHT22;5612;51.134;17.058;2023-07-22T06:47:37;19.00;99.90
2611;DHT22;5612;51.134;17.058;2023-07-22T06:50:07;19.30;99.90
2611;DHT22;5612;51.134;17.058;2023-07-22T06:52:35;20.00;99.90
2611;DHT22;5612;51.134;17.058;2023-07-22T06:55:05;20.20;22.00
2611;DHT22;5612;51.134;17.058;2023-07-22T06:57:36;20.30;22.40
2611;DHT22;5612;51.134;17.058;2023-07-22T07:00:06;20.10;1.00
2611;DHT22;5612;51.134;17.058;2023-07-22T07:02:37;20.00;1.00
2611;DHT22;5612;51.134;17.058;2023-07-22T07:05:06;20.10;20.10
2611;DHT22;5612;51.134;17.058;2023-07-22T07:07:35;20.20;1.00
2611;DHT22;5612;51.134;17.058;2023-07-22T07:10:04;20.00;1.00
2611;DHT22;5612;51.134;17.058;2023-07-22T07:12:34;20.00;1.00
2611;DHT22;5612;51.134;17.058;2023-07-22T07:15:05;20.50;1.70
2611;DHT22;5612;51.134;17.058;2023-07-22T07:17:34;20.90;1.00
2611;DHT22;5612;51.134;17.058;2023-07-22T07:20:04;21.40;1.00
2611;DHT22;5612;51.134;17.058;2023-07-22T07:22:33;21.70;1.00
2611;DHT22;5612;51.134;17.058;2023-07-22T07:25:02;21.90;1.00
2611;DHT22;5612;51.134;17.058;2023-07-22T07:27:31;22.30;1.00
2611;DHT22;5612;51.134;17.058;2023-07-22T07:30:00;22.80;1.00
2611;DHT22;5612;51.134;17.058;2023-07-22T07:32:30;23.20;1.00
2611;DHT22;5612;51.134;17.058;2023-07-22T07:34:59;23.70;1.00
2611;DHT22;5612;51.134;17.058;2023-07-22T07:37:28;23.60;1.00
2611;DHT22;5612;51.134;17.058;2023-07-22T07:39:56;23.90;1.00
2611;DHT22;5612;51.134;17.058;2023-07-22T07:42:27;24.40;1.00
2611;DHT22;5612;51.134;17.058;2023-07-22T07:44:56;25.00;1.00
2611;DHT22;5612;51.134;17.058;2023-07-22T07:47:25;25.50;1.00
2611;DHT22;5612;51.134;17.058;2023-07-22T07:49:55;25.60;1.00
2611;DHT22;5612;51.134;17.058;2023-07-22T07:52:24;25.30;1.00
2611;DHT22;5612;51.134;17.058;2023-07-22T07:54:53;25.20;1.00
2611;DHT22;5612;51.134;17.058;2023-07-22T07:57:21;25.10;1.00
2611;DHT22;5612;51.134;17.058;2023-07-22T07:59:50;25.20;1.00
2611;DHT22;5612;51.134;17.058;2023-07-22T08:02:19;25.30;1.00
2611;DHT22;5612;51.134;17.058;2023-07-22T08:04:48;24.50;1.00
2611;DHT22;5612;51.134;17.058;2023-07-22T08:07:18;25.00;1.00
2611;DHT22;5612;51.134;17.058;2023-07-22T08:09:47;25.30;1.00
2611;DHT22;5612;51.134;17.058;2023-07-22T08:12:17;25.30;1.00
2611;DHT22;5612;51.134;17.058;2023-07-22T08:14:46;25.20;1.00
2611;DHT22;5612;51.134;17.058;2023-07-22T08:17:15;25.60;1.00
2611;DHT22;5612;51.134;17.058;2023-07-22T08:19:44;26.30;1.00
2611;DHT22;5612;51.134;17.058;2023-07-22T08:22:13;27.00;1.00
2611;DHT22;5612;51.134;17.058;2023-07-22T08:24:43;27.60;1.00
2611;DHT22;5612;51.134;17.058;2023-07-22T08:27:15;28.30;1.00
2611;DHT22;5612;51.134;17.058;2023-07-22T08:29:44;29.00;1.00
2611;DHT22;5612;51.134;17.058;2023-07-22T08:32:13;28.80;1.00
2611;DHT22;5612;51.134;17.058;2023-07-22T08:34:42;28.20;1.00
2611;DHT22;5612;51.134;17.058;2023-07-22T08:37:11;28.40;1.00
2611;DHT22;5612;51.134;17.058;2023-07-22T08:39:40;28.70;1.00
2611;DHT22;5612;51.134;17.058;2023-07-22T08:42:11;28.50;1.00
2611;DHT22;5612;51.134;17.058;2023-07-22T08:44:46;27.70;1.00
2611;DHT22;5612;51.134;17.058;2023-07-22T08:47:17;27.50;1.00
2611;DHT22;5612;51.134;17.058;2023-07-22T08:49:51;27.50;1.00
2611;DHT22;5612;51.134;17.058;2023-07-22T08:52:21;28.40;1.00
2611;DHT22;5612;51.134;17.058;2023-07-22T08:54:51;29.40;1.00
2611;DHT22;5612;51.134;17.058;2023-07-22T08:57:22;29.90;1.00
2611;DHT22;5612;51.134;17.058;2023-07-22T08:59:52;29.10;1.00
2611;DHT22;5612;51.134;17.058;2023-07-22T09:02:21;28.20;1.00
2611;DHT22;5612;51.134;17.058;2023-07-22T09:04:50;27.40;1.00
2611;DHT22;5612;51.134;17.058;2023-07-22T09:07:20;27.70;1.00
2611;DHT22;5612;51.134;17.058;2023-07-22T09:09:49;28.20;1.00
2611;DHT22;5612;51.134;17.058;2023-07-22T09:12:20;29.40;1.00
2611;DHT22;5612;51.134;17.058;2023-07-22T09:14:56;30.40;1.00
2611;DHT22;5612;51.134;17.058;2023-07-22T09:17:26;30.70;1.00
2611;DHT22;5612;51.134;17.058;2023-07-22T09:19:56;31.50;1.00
2611;DHT22;5612;51.134;17.058;2023-07-22T09:22:25;31.60;1.00
2611;DHT22;5612;51.134;17.058;2023-07-22T09:25:12;30.70;1.00
2611;DHT22;5612;51.134;17.058;2023-07-22T09:27:42;31.10;1.00
2611;DHT22;5612;51.134;17.058;2023-07-22T09:30:25;31.50;1.00
2611;DHT22;5612;51.134;17.058;2023-07-22T09:32:55;32.10;1.00
2611;DHT22;5612;51.134;17.058;2023-07-22T09:35:25;31.20;1.00
2611;DHT22;5612;51.134;17.058;2023-07-22T09:37:55;29.50;1.00
2611;DHT22;5612;51.134;17.058;2023-07-22T09:40:25;29.40;1.00
2611;DHT22;5612;51.134;17.058;2023-07-22T09:42:56;29.90;1.00
2611;DHT22;5612;51.134;17.058;2023-07-22T09:45:30;28.90;1.00
2611;DHT22;5612;51.134;17.058;2023-07-22T09:47:59;28.00;1.00
2611;DHT22;5612;51.134;17.058;2023-07-22T09:50:28;27.60;1.00
2611;DHT22;5612;51.134;17.058;2023-07-22T09:52:58;28.20;1.00
2611;DHT22;5612;51.134;17.058;2023-07-22T09:55:31;29.20;1.00
2611;DHT22;5612;51.134;17.058;2023-07-22T09:58:01;30.30;1.00
2611;DHT22;5612;51.134;17.058;2023-07-22T10:00:33;31.70;1.00
2611;DHT22;5612;51.134;17.058;2023-07-22T10:03:04;31.80;1.00
2611;DHT22;5612;51.134;17.058;2023-07-22T10:05:37;31.70;1.00
2611;DHT22;5612;51.134;17.058;2023-07-22T10:08:06;32.40;1.00
2611;DHT22;5612;51.134;17.058;2023-07-22T10:10:38;32.90;1.00
2611;DHT22;5612;51.134;17.058;2023-07-22T10:13:07;32.70;1.00
2611;DHT22;5612;51.134;17.058;2023-07-22T10:15:38;31.60;1.00
2611;DHT22;5612;51.134;17.058;2023-07-22T10:18:08;31.40;1.00
2611;DHT22;5612;51.134;17.058;2023-07-22T10:20:39;31.10;1.00
2611;DHT22;5612;51.134;17.058;2023-07-22T10:23:08;31.90;1.00
2611;DHT22;5612;51.134;17.058;2023-07-22T10:25:39;32.10;1.00
2611;DHT22;5612;51.134;17.058;2023-07-22T10:28:10;32.10;1.00
2611;DHT22;5612;51.134;17.058;2023-07-22T10:30:41;31.40;1.00
2611;DHT22;5612;51.134;17.058;2023-07-22T10:33:11;30.20;1.00
2611;DHT22;5612;51.134;17.058;2023-07-22T10:35:41;29.20;1.00
2611;DHT22;5612;51.134;17.058;2023-07-22T10:38:13;27.90;1.00
2611;DHT22;5612;51.134;17.058;2023-07-22T10:40:46;26.80;1.00
2611;DHT22;5612;51.134;17.058;2023-07-22T10:43:16;27.30;1.00
2611;DHT22;5612;51.134;17.058;2023-07-22T10:45:51;28.60;1.00
2611;DHT22;5612;51.134;17.058;2023-07-22T10:48:23;29.50;1.00
2611;DHT22;5612;51.134;17.058;2023-07-22T10:50:57;29.10;1.00
2611;DHT22;5612;51.134;17.058;2023-07-22T10:53:30;28.20;1.00
2611;DHT22;5612;51.134;17.058;2023-07-22T10:56:14;28.70;1.00
2611;DHT22;5612;51.134;17.058;2023-07-22T10:58:59;29.90;1.00
2611;DHT22;5612;51.134;17.058;2023-07-22T11:01:40;30.70;1.00
2611;DHT22;5612;51.134;17.058;2023-07-22T11:04:21;31.50;1.00
2611;DHT22;5612;51.134;17.058;2023-07-22T11:07:06;31.30;1.00
2611;DHT22;5612;51.134;17.058;2023-07-22T11:09:39;29.90;1.00
2611;DHT22;5612;51.134;17.058;2023-07-22T11:12:13;28.30;1.00
2611;DHT22;5612;51.134;17.058;2023-07-22T11:14:48;27.20;1.00
2611;DHT22;5612;51.134;17.058;2023-07-22T11:17:28;26.30;1.00
2611;DHT22;5612;51.134;17.058;2023-07-22T11:19:58;25.80;1.00
2611;DHT22;5612;51.134;17.058;2023-07-22T11:22:27;25.00;1.00
2611;DHT22;5612;51.134;17.058;2023-07-22T11:24:57;24.90;1.00
2611;DHT22;5612;51.134;17.058;2023-07-22T11:27:26;26.00;1.00
2611;DHT22;5612;51.134;17.058;2023-07-22T11:29:58;27.10;1.00
2611;DHT22;5612;51.134;17.058;2023-07-22T11:32:28;27.60;1.00
2611;DHT22;5612;51.134;17.058;2023-07-22T11:34:57;28.20;1.00
2611;DHT22;5612;51.134;17.058;2023-07-22T11:37:27;28.00;1.00
2611;DHT22;5612;51.134;17.058;2023-07-22T11:39:59;27.80;1.00
2611;DHT22;5612;51.134;17.058;2023-07-22T11:42:29;27.60;1.00
2611;DHT22;5612;51.134;17.058;2023-07-22T11:44:58;27.20;1.00
2611;DHT22;5612;51.134;17.058;2023-07-22T11:47:30;26.70;1.00
2611;DHT22;5612;51.134;17.058;2023-07-22T11:50:01;26.50;1.00
2611;DHT22;5612;51.134;17.058;2023-07-22T11:52:30;26.80;1.00
2611;DHT22;5612;51.134;17.058;2023-07-22T11:55:02;26.60;1.00
2611;DHT22;5612;51.134;17.058;2023-07-22T11:57:31;26.60;1.00
2611;DHT22;5612;51.134;17.058;2023-07-22T12:00:00;26.90;1.00
2611;DHT22;5612;51.134;17.058;2023-07-22T12:02:35;28.20;1.00
2611;DHT22;5612;51.134;17.058;2023-07-22T12:05:05;30.00;1.00
2611;DHT22;5612;51.134;17.058;2023-07-22T12:07:36;32.00;1.00
2611;DHT22;5612;51.134;17.058;2023-07-22T12:10:06;33.10;1.00
2611;DHT22;5612;51.134;17.058;2023-07-22T12:12:38;33.60;1.00
2611;DHT22;5612;51.134;17.058;2023-07-22T12:15:10;33.30;1.00
2611;DHT22;5612;51.134;17.058;2023-07-22T12:17:46;33.10;1.00
2611;DHT22;5612;51.134;17.058;2023-07-22T12:20:16;32.50;1.00
2611;DHT22;5612;51.134;17.058;2023-07-22T12:22:45;32.30;1.00
2611;DHT22;5612;51.134;17.058;2023-07-22T12:25:14;31.50;1.00
2611;DHT22;5612;51.134;17.058;2023-07-22T12:27:44;31.40;1.00
2611;DHT22;5612;51.134;17.058;2023-07-22T12:30:13;32.10;1.00
2611;DHT22;5612;51.134;17.058;2023-07-22T12:32:47;32.60;1.00
2611;DHT22;5612;51.134;17.058;2023-07-22T12:35:16;32.70;1.00
2611;DHT22;5612;51.134;17.058;2023-07-22T12:37:45;32.30;1.00
2611;DHT22;5612;51.134;17.058;2023-07-22T12:40:14;32.50;1.00
2611;DHT22;5612;51.134;17.058;2023-07-22T12:42:43;31.70;1.00
2611;DHT22;5612;51.134;17.058;2023-07-22T12:45:13;30.90;1.00
2611;DHT22;5612;51.134;17.058;2023-07-22T12:47:42;30.20;1.00
2611;DHT22;5612;51.134;17.058;2023-07-22T12:50:12;29.80;1.00
2611;DHT22;5612;51.134;17.058;2023-07-22T12:52:41;29.20;1.00
2611;DHT22;5612;51.134;17.058;2023-07-22T12:55:10;29.10;1.00
2611;DHT22;5612;51.134;17.058;2023-07-22T12:57:38;29.10;1.00
2611;DHT22;5612;51.134;17.058;2023-07-22T13:00:08;29.30;1.00
2611;DHT22;5612;51.134;17.058;2023-07-22T13:02:39;30.70;1.00
2611;DHT22;5612;51.134;17.058;2023-07-22T13:05:08;30.60;1.00
2611;DHT22;5612;51.134;17.058;2023-07-22T13:07:39;30.10;1.00
2611;DHT22;5612;51.134;17.058;2023-07-22T13:10:09;29.50;1.00
2611;DHT22;5612;51.134;17.058;2023-07-22T13:12:42;29.10;1.00
2611;DHT22;5612;51.134;17.058;2023-07-22T13:15:11;28.60;1.00
2611;DHT22;5612;51.134;17.058;2023-07-22T13:17:39;30.30;1.00
2611;DHT22;5612;51.134;17.058;2023-07-22T13:20:09;31.60;1.00
2611;DHT22;5612;51.134;17.058;2023-07-22T13:22:40;31.60;1.00
2611;DHT22;5612;51.134;17.058;2023-07-22T13:25:09;31.10;1.00
2611;DHT22;5612;51.134;17.058;2023-07-22T13:27:38;30.00;1.00
2611;DHT22;5612;51.134;17.058;2023-07-22T13:30:08;30.50;1.00
2611;DHT22;5612;51.134;17.058;2023-07-22T13:32:38;30.90;1.00
2611;DHT22;5612;51.134;17.058;2023-07-22T13:35:07;29.70;1.00
2611;DHT22;5612;51.134;17.058;2023-07-22T13:37:37;29.40;1.00
2611;DHT22;5612;51.134;17.058;2023-07-22T13:40:08;29.20;1.00
2611;DHT22;5612;51.134;17.058;2023-07-22T13:42:38;29.70;1.00
2611;DHT22;5612;51.134;17.058;2023-07-22T13:45:08;30.10;1.00
2611;DHT22;5612;51.134;17.058;2023-07-22T13:47:37;29.90;1.00
2611;DHT22;5612;51.134;17.058;2023-07-22T13:50:06;31.00;1.00
2611;DHT22;5612;51.134;17.058;2023-07-22T13:52:35;31.60;1.00
2611;DHT22;5612;51.134;17.058;2023-07-22T13:55:07;30.80;1.00
2611;DHT22;5612;51.134;17.058;2023-07-22T13:57:36;30.20;1.00
2611;DHT22;5612;51.134;17.058;2023-07-22T14:00:06;31.00;1.00
2611;DHT22;5612;51.134;17.058;2023-07-22T14:02:38;31.80;1.00
2611;DHT22;5612;51.134;17.058;2023-07-22T14:05:08;32.60;1.00
2611;DHT22;5612;51.134;17.058;2023-07-22T14:07:37;32.40;1.00
2611;DHT22;5612;51.134;17.058;2023-07-22T14:10:09;32.80;1.00
2611;DHT22;5612;51.134;17.058;2023-07-22T14:12:38;32.40;1.00
2611;DHT22;5612;51.134;17.058;2023-07-22T14:15:08;31.70;1.00
2611;DHT22;5612;51.134;17.058;2023-07-22T14:17:37;32.00;1.00
2611;DHT22;5612;51.134;17.058;2023-07-22T14:20:07;30.90;1.00
2611;DHT22;5612;51.134;17.058;2023-07-22T14:22:38;30.30;1.00
2611;DHT22;5612;51.134;17.058;2023-07-22T14:25:09;30.60;1.00
2611;DHT22;5612;51.134;17.058;2023-07-22T14:27:39;30.90;1.00
2611;DHT22;5612;51.134;17.058;2023-07-22T14:30:09;30.40;1.00
2611;DHT22;5612;51.134;17.058;2023-07-22T14:32:38;29.20;1.00
2611;DHT22;5612;51.134;17.058;2023-07-22T14:35:08;28.70;1.00
2611;DHT22;5612;51.134;17.058;2023-07-22T14:37:37;28.40;1.00
2611;DHT22;5612;51.134;17.058;2023-07-22T14:40:11;28.20;1.00
2611;DHT22;5612;51.134;17.058;2023-07-22T14:42:40;28.30;1.00
2611;DHT22;5612;51.134;17.058;2023-07-22T14:45:10;28.70;1.00
2611;DHT22;5612;51.134;17.058;2023-07-22T14:47:39;29.40;1.00
2611;DHT22;5612;51.134;17.058;2023-07-22T14:50:09;29.50;1.00
2611;DHT22;5612;51.134;17.058;2023-07-22T14:52:38;28.70;1.00
2611;DHT22;5612;51.134;17.058;2023-07-22T14:55:09;27.60;1.00
2611;DHT22;5612;51.134;17.058;2023-07-22T14:57:38;26.70;1.00
2611;DHT22;5612;51.134;17.058;2023-07-22T15:00:08;26.80;1.00
2611;DHT22;5612;51.134;17.058;2023-07-22T15:02:38;26.90;1.00
2611;DHT22;5612;51.134;17.058;2023-07-22T15:05:08;26.60;1.00
2611;DHT22;5612;51.134;17.058;2023-07-22T15:07:37;26.60;1.00
2611;DHT22;5612;51.134;17.058;2023-07-22T15:10:07;26.60;1.00
2611;DHT22;5612;51.134;17.058;2023-07-22T15:12:37;26.80;1.00
2611;DHT22;5612;51.134;17.058;2023-07-22T15:15:07;26.80;1.00
2611;DHT22;5612;51.134;17.058;2023-07-22T15:17:36;27.10;1.00
2611;DHT22;5612;51.134;17.058;2023-07-22T15:20:06;27.60;1.00
2611;DHT22;5612;51.134;17.058;2023-07-22T15:22:35;27.90;1.00
2611;DHT22;5612;51.134;17.058;2023-07-22T15:25:05;27.70;1.00
2611;DHT22;5612;51.134;17.058;2023-07-22T15:27:34;27.80;1.00
2611;DHT22;5612;51.134;17.058;2023-07-22T15:30:05;27.30;1.00
2611;DHT22;5612;51.134;17.058;2023-07-22T15:32:35;26.70;1.00
2611;DHT22;5612;51.134;17.058;2023-07-22T15:35:04;26.10;1.00
2611;DHT22;5612;51.134;17.058;2023-07-22T15:37:33;26.10;1.00
2611;DHT22;5612;51.134;17.058;2023-07-22T15:40:03;26.60;1.00
2611;DHT22;5612;51.134;17.058;2023-07-22T15:42:32;27.30;1.00
2611;DHT22;5612;51.134;17.058;2023-07-22T15:45:01;27.20;1.00
2611;DHT22;5612;51.134;17.058;2023-07-22T15:47:31;27.10;1.00
2611;DHT22;5612;51.134;17.058;2023-07-22T15:50:00;26.80;1.00
2611;DHT22;5612;51.134;17.058;2023-07-22T15:52:29;26.40;1.00
2611;DHT22;5612;51.134;17.058;2023-07-22T15:54:58;26.50;1.00
2611;DHT22;5612;51.134;17.058;2023-07-22T15:57:26;26.60;1.00
2611;DHT22;5612;51.134;17.058;2023-07-22T15:59:55;26.80;1.00
2611;DHT22;5612;51.134;17.058;2023-07-22T16:02:24;26.30;1.00
2611;DHT22;5612;51.134;17.058;2023-07-22T16:04:54;26.20;1.00
2611;DHT22;5612;51.134;17.058;2023-07-22T16:07:23;26.10;1.00
2611;DHT22;5612;51.134;17.058;2023-07-22T16:09:52;26.10;1.00
2611;DHT22;5612;51.134;17.058;2023-07-22T16:12:21;26.30;1.00
2611;DHT22;5612;51.134;17.058;2023-07-22T16:14:50;26.10;1.00
2611;DHT22;5612;51.134;17.058;2023-07-22T16:17:18;25.70;99.90